| time (UTC) | temp F | wind direction | speed MPH | gust MPH | rain 1hr in | rain 24hr in | rain mn in | humidity % | barometer mb |
| 20260901011150 | 66 | 175 | 0.0 | 0.0 | 0.07 | 0.41 | 0.41 | 99 | 1017.9 |
| 20260901010645 | 66 | 175 | 0.0 | 0.0 | 0.00 | 0.40 | 0.40 | 99 | 1017.9 |
| 20260901010145 | 66 | 175 | 0.0 | 0.0 | 0.00 | 0.40 | 0.40 | 99 | 1017.9 |
| 20260901005643 | 66 | 174 | 0.0 | 1.0 | 0.00 | 0.40 | 0.40 | 99 | 1018.0 |
| 20260901005139 | 66 | 174 | 0.0 | 0.0 | 0.00 | 0.40 | 0.40 | 99 | 1017.8 |
| 20260901004638 | 66 | 175 | 0.0 | 0.0 | 0.05 | 0.40 | 0.40 | 99 | 1017.7 |
| 20260901004133 | 66 | 175 | 0.0 | 0.0 | 0.05 | 0.40 | 0.40 | 99 | 1017.9 |
| 20260901003628 | 66 | 173 | 0.0 | 1.0 | 0.00 | 0.39 | 0.39 | 99 | 1017.9 |
| 20260901003127 | 66 | 174 | 1.0 | 1.0 | 0.00 | 0.39 | 0.39 | 99 | 1017.7 |
| 20260901002627 | 66 | 174 | 1.0 | 1.0 | 0.00 | 0.39 | 0.39 | 99 | 1017.6 |
| 20260901002122 | 66 | 160 | 0.0 | 0.0 | 0.00 | 0.39 | 0.39 | 99 | 1017.5 |
| 20260901001617 | 66 | 126 | 1.0 | 1.0 | 0.00 | 0.39 | 0.39 | 99 | 1017.5 |
| 20260901001113 | 66 | 134 | 0.0 | 0.0 | 0.07 | 0.39 | 0.39 | 99 | 1017.6 |
| 20260901000608 | 66 | 134 | 0.0 | 1.0 | 0.07 | 0.39 | 0.39 | 99 | 1017.4 |
| 20260901000103 | 66 | 117 | 0.0 | 0.0 | 0.00 | 0.38 | 0.38 | 99 | 1017.7 |
| 20260831235557 | 66 | 171 | 0.0 | 0.0 | 0.00 | 0.38 | 0.38 | 99 | 1017.6 |
| 20260831235053 | 66 | 129 | 0.0 | 1.0 | 0.05 | 0.38 | 0.38 | 99 | 1017.5 |
| 20260831234552 | 66 | 127 | 0.0 | 0.0 | 0.05 | 0.38 | 0.38 | 99 | 1017.8 |
| 20260831234048 | 66 | 145 | 0.0 | 0.0 | 0.00 | 0.37 | 0.37 | 99 | 1017.7 |
| 20260831233548 | 66 | 145 | 0.0 | 0.0 | 0.00 | 0.37 | 0.37 | 99 | 1017.8 |
| 20260831233044 | 66 | 133 | 0.0 | 0.0 | 0.00 | 0.37 | 0.37 | 99 | 1017.6 |
| 20260831232539 | 66 | 133 | 0.0 | 0.0 | 0.00 | 0.37 | 0.37 | 99 | 1017.6 |
| 20260831232035 | 66 | 88 | 0.0 | 0.0 | 0.00 | 0.37 | 0.37 | 99 | 1017.7 |
| 20260831231532 | 66 | 89 | 0.0 | 0.0 | 0.00 | 0.37 | 0.37 | 99 | 1017.9 |
| 20260831231027 | 66 | 162 | 0.0 | 0.0 | 0.00 | 0.37 | 0.37 | 99 | 1017.9 |
| 20260831230522 | 66 | 133 | 0.0 | 1.0 | 0.00 | 0.37 | 0.37 | 99 | 1017.9 |
| 20260831230023 | 66 | 159 | 0.0 | 0.0 | 0.00 | 0.37 | 0.37 | 99 | 1017.9 |
| 20260831225518 | 66 | 170 | 0.0 | 1.0 | 0.00 | 0.37 | 0.37 | 99 | 1017.7 |
| 20260831225018 | 66 | 138 | 0.0 | 0.0 | 0.07 | 0.37 | 0.37 | 99 | 1017.8 |
| 20260831224513 | 66 | 133 | 1.0 | 2.0 | 0.07 | 0.37 | 0.37 | 99 | 1018.0 |
| 20260831224008 | 66 | 132 | 1.0 | 1.0 | 0.00 | 0.36 | 0.36 | 99 | 1018.2 |
| 20260831223503 | 66 | 165 | 0.0 | 0.0 | 0.00 | 0.36 | 0.36 | 99 | 1018.1 |
| 20260831222959 | 66 | 155 | 0.0 | 1.0 | 0.00 | 0.36 | 0.36 | 99 | 1018.4 |
| 20260831222455 | 66 | 154 | 0.0 | 0.0 | 0.00 | 0.36 | 0.36 | 99 | 1018.2 |
| 20260831221954 | 66 | 154 | 0.0 | 1.0 | 0.00 | 0.36 | 0.36 | 99 | 1018.3 |
| 20260831221451 | 66 | 155 | 0.0 | 0.0 | 0.00 | 0.36 | 0.36 | 99 | 1018.3 |
| 20260831220946 | 66 | 155 | 0.0 | 0.0 | 0.00 | 0.36 | 0.36 | 99 | 1018.5 |
| 20260831220441 | 66 | 148 | 0.0 | 0.0 | 0.12 | 0.36 | 0.36 | 99 | 1018.4 |
| 20260831215936 | 66 | 148 | 0.0 | 0.0 | 0.24 | 0.36 | 0.36 | 99 | 1018.7 |
| 20260831215432 | 66 | 148 | 0.0 | 0.0 | 0.26 | 0.35 | 0.35 | 99 | 1018.8 |
| 20260831214928 | 66 | 148 | 0.0 | 0.0 | 0.12 | 0.33 | 0.33 | 99 | 1018.8 |
| 20260831214425 | 66 | 149 | 1.0 | 1.0 | 0.00 | 0.31 | 0.31 | 99 | 1018.9 |
| 20260831213921 | 66 | 136 | 0.0 | 0.0 | 0.05 | 0.31 | 0.31 | 99 | 1018.5 |
| 20260831213417 | 66 | 161 | 1.0 | 1.0 | 0.05 | 0.31 | 0.31 | 98 | 1018.7 |
| 20260831212917 | 66 | 150 | 0.0 | 0.0 | 0.07 | 0.30 | 0.30 | 98 | 1018.7 |
| 20260831212414 | 66 | 127 | 1.0 | 1.0 | 0.07 | 0.30 | 0.30 | 98 | 1018.7 |
| 20260831211913 | 66 | 152 | 1.0 | 1.0 | 0.05 | 0.29 | 0.29 | 98 | 1018.6 |
| 20260831211408 | 66 | 152 | 0.0 | 0.0 | 0.05 | 0.29 | 0.29 | 98 | 1018.6 |
| 20260831210908 | 66 | 152 | 0.0 | 0.0 | 0.12 | 0.29 | 0.29 | 98 | 1018.9 |
| 20260831210403 | 66 | 152 | 0.0 | 1.0 | 0.12 | 0.28 | 0.28 | 98 | 1018.8 |
| 20260831205859 | 66 | 151 | 0.0 | 0.0 | 0.05 | 0.27 | 0.27 | 98 | 1018.8 |
| 20260831205354 | 66 | 169 | 1.0 | 1.0 | 0.00 | 0.26 | 0.26 | 98 | 1018.8 |
| 20260831204849 | 66 | 166 | 1.0 | 1.0 | 0.07 | 0.26 | 0.26 | 98 | 1018.8 |
| 20260831204348 | 66 | 154 | 0.0 | 1.0 | 0.07 | 0.26 | 0.26 | 98 | 1018.6 |
| 20260831203848 | 66 | 145 | 1.0 | 1.0 | 0.00 | 0.25 | 0.25 | 98 | 1018.8 |
| 20260831203343 | 66 | 136 | 0.0 | 0.0 | 0.05 | 0.25 | 0.25 | 97 | 1018.9 |
| 20260831202841 | 66 | 107 | 0.0 | 0.0 | 0.05 | 0.25 | 0.25 | 98 | 1018.9 |
| 20260831202336 | 66 | 191 | 1.0 | 2.0 | 0.00 | 0.24 | 0.24 | 97 | 1018.8 |
| 20260831201836 | 66 | 158 | 0.0 | 0.0 | 0.00 | 0.24 | 0.24 | 98 | 1018.8 |
| 20260831201334 | 66 | 160 | 0.0 | 1.0 | 0.00 | 0.24 | 0.24 | 97 | 1018.8 |
| 20260831200831 | 66 | 164 | 0.0 | 0.0 | 0.00 | 0.24 | 0.24 | 97 | 1019.0 |
| 20260831200325 | 66 | 105 | 1.0 | 1.0 | 0.00 | 0.24 | 0.24 | 97 | 1019.0 |
| 20260831195821 | 66 | 176 | 0.0 | 0.0 | 0.00 | 0.24 | 0.24 | 97 | 1019.1 |
| 20260831195316 | 66 | 135 | 0.0 | 0.0 | 0.00 | 0.24 | 0.24 | 97 | 1018.8 |
| 20260831194812 | 66 | 67 | 1.0 | 1.0 | 0.00 | 0.24 | 0.24 | 97 | 1019.1 |
| 20260831194307 | 66 | 118 | 0.0 | 1.0 | 0.07 | 0.24 | 0.24 | 98 | 1018.9 |
| 20260831193806 | 66 | 155 | 0.0 | 0.0 | 0.07 | 0.24 | 0.24 | 98 | 1019.4 |
| 20260831193301 | 65 | 153 | 1.0 | 1.0 | 0.00 | 0.23 | 0.23 | 98 | 1019.1 |
| 20260831192756 | 65 | 122 | 0.0 | 0.0 | 0.00 | 0.23 | 0.23 | 98 | 1019.0 |
| 20260831192251 | 65 | 156 | 1.0 | 1.0 | 0.00 | 0.23 | 0.23 | 98 | 1019.1 |
| 20260831191747 | 65 | 159 | 0.0 | 0.0 | 0.05 | 0.23 | 0.23 | 97 | 1019.3 |
| 20260831191243 | 65 | 183 | 2.0 | 2.0 | 0.05 | 0.23 | 0.23 | 97 | 1019.0 |
| 20260831190739 | 65 | 187 | 1.0 | 1.0 | 0.00 | 0.22 | 0.22 | 97 | 1019.4 |
| 20260831190239 | 65 | 162 | 0.0 | 1.0 | 0.00 | 0.22 | 0.22 | 97 | 1019.4 |
| 20260831185738 | 65 | 120 | 1.0 | 1.0 | 0.00 | 0.22 | 0.22 | 97 | 1019.5 |
| 20260831185234 | 66 | 150 | 1.0 | 1.0 | 0.00 | 0.22 | 0.22 | 96 | 1019.4 |
| 20260831184733 | 66 | 256 | 2.0 | 4.0 | 0.00 | 0.22 | 0.22 | 96 | 1019.4 |
| 20260831184229 | 66 | 92 | 0.0 | 0.0 | 0.00 | 0.22 | 0.22 | 96 | 1019.5 |
| 20260831183724 | 66 | 146 | 1.0 | 1.0 | 0.00 | 0.22 | 0.22 | 96 | 1019.4 |
| 20260831183223 | 66 | 262 | 3.0 | 3.0 | 0.00 | 0.22 | 0.22 | 96 | 1019.6 |
| 20260831182722 | 66 | 127 | 0.0 | 1.0 | 0.00 | 0.22 | 0.22 | 96 | 1019.8 |
| 20260831182218 | 65 | 277 | 2.0 | 3.0 | 0.00 | 0.22 | 0.22 | 96 | 1019.7 |
| 20260831181718 | 65 | 136 | 2.0 | 2.0 | 0.00 | 0.22 | 0.22 | 96 | 1020.0 |
| 20260831181214 | 65 | 173 | 0.0 | 0.0 | 0.00 | 0.22 | 0.22 | 96 | 1020.0 |
| 20260831180708 | 65 | 172 | 0.0 | 0.0 | 0.00 | 0.22 | 0.22 | 96 | 1020.0 |
| 20260831180203 | 65 | 159 | 1.0 | 1.0 | 0.00 | 0.22 | 0.22 | 96 | 1020.1 |
| 20260831175702 | 65 | 219 | 3.0 | 3.0 | 0.00 | 0.22 | 0.22 | 96 | 1020.0 |
| 20260831175159 | 65 | 133 | 0.0 | 0.0 | 0.00 | 0.22 | 0.22 | 96 | 1020.0 |
| 20260831174659 | 65 | 167 | 1.0 | 1.0 | 0.00 | 0.22 | 0.22 | 96 | 1020.2 |
| 20260831174155 | 65 | 130 | 0.0 | 0.0 | 0.07 | 0.22 | 0.22 | 96 | 1020.3 |
| 20260831173653 | 65 | 194 | 2.0 | 3.0 | 0.07 | 0.22 | 0.22 | 96 | 1020.2 |
| 20260831173149 | 65 | 141 | 2.0 | 2.0 | 0.07 | 0.21 | 0.21 | 96 | 1020.4 |
| 20260831172649 | 65 | 282 | 2.0 | 3.0 | 0.12 | 0.21 | 0.21 | 96 | 1020.5 |
| 20260831172144 | 65 | 106 | 0.0 | 1.0 | 0.05 | 0.20 | 0.20 | 96 | 1020.4 |
| 20260831171639 | 65 | 337 | 4.0 | 4.0 | 0.07 | 0.19 | 0.19 | 96 | 1020.3 |
| 20260831171136 | 65 | 82 | 2.0 | 2.0 | 0.12 | 0.19 | 0.19 | 96 | 1020.2 |
| 20260831170632 | 65 | 135 | 0.0 | 1.0 | 0.12 | 0.18 | 0.18 | 96 | 1020.4 |
| 20260831170129 | 65 | 123 | 0.0 | 0.0 | 0.12 | 0.17 | 0.17 | 96 | 1020.6 |
| 20260831165625 | 65 | 165 | 0.0 | 1.0 | 0.12 | 0.16 | 0.16 | 96 | 1020.6 |
| 20260831165121 | 65 | 163 | 0.0 | 0.0 | 0.17 | 0.16 | 0.16 | 95 | 1020.6 |
| 20260831164617 | 65 | 60 | 1.0 | 2.0 | 0.05 | 0.14 | 0.14 | 95 | 1020.7 |
| 20260831164112 | 66 | 295 | 3.0 | 3.0 | 0.07 | 0.13 | 0.13 | 95 | 1020.7 |
| 20260831163607 | 66 | 126 | 0.0 | 0.0 | 0.12 | 0.13 | 0.13 | 95 | 1020.7 |
| 20260831163103 | 65 | 126 | 0.0 | 0.0 | 0.12 | 0.12 | 0.12 | 95 | 1020.9 |
| 20260831162602 | 65 | 186 | 0.0 | 0.0 | 0.19 | 0.11 | 0.11 | 95 | 1020.8 |
| 20260831162100 | 65 | 186 | 0.0 | 0.0 | 0.24 | 0.10 | 0.10 | 95 | 1020.9 |
| 20260831161556 | 65 | 186 | 0.0 | 0.0 | 0.24 | 0.08 | 0.08 | 94 | 1020.7 |
| 20260831161052 | 65 | 186 | 0.0 | 0.0 | 0.24 | 0.06 | 0.06 | 95 | 1020.9 |
| 20260831160551 | 65 | 186 | 0.0 | 0.0 | 0.19 | 0.04 | 0.04 | 93 | 1021.1 |
| 20260831160048 | 66 | 187 | 0.0 | 0.0 | 0.12 | 0.02 | 0.02 | 92 | 1021.1 |
| 20260831155547 | 66 | 187 | 0.0 | 0.0 | 0.12 | 0.02 | 0.02 | 89 | 1021.1 |
| 20260831155043 | 66 | 187 | 0.0 | 0.0 | 0.00 | 0.00 | 0.00 | 87 | 1021.0 |
| 20260831154539 | 66 | 187 | 0.0 | 0.0 | 0.00 | 0.00 | 0.00 | 87 | 1021.1 |
| 20260831154038 | 66 | 187 | 0.0 | 0.0 | 0.00 | 0.00 | 0.00 | 87 | 1021.0 |
| 20260831153538 | 67 | 187 | 0.0 | 0.0 | 0.00 | 0.00 | 0.00 | 88 | 1021.1 |
| 20260831153035 | 67 | 148 | 0.0 | 1.0 | 0.00 | 0.00 | 0.00 | 87 | 1021.1 |
| 20260831152530 | 67 | 148 | 1.0 | 1.0 | 0.00 | 0.00 | 0.00 | 86 | 1020.8 |
| 20260831152026 | 66 | 166 | 1.0 | 1.0 | 0.00 | 0.00 | 0.00 | 87 | 1020.9 |
| 20260831151525 | 66 | 185 | 0.0 | 0.0 | 0.00 | 0.00 | 0.00 | 87 | 1020.7 |
| 20260831151025 | 67 | 158 | 0.0 | 0.0 | 0.00 | 0.00 | 0.00 | 87 | 1021.0 |
| 20260831150520 | 67 | 140 | 1.0 | 1.0 | 0.00 | 0.00 | 0.00 | 87 | 1020.7 |
| 20260831150016 | 67 | 233 | 2.0 | 3.0 | 0.00 | 0.00 | 0.00 | 85 | 1020.5 |
| 20260831145510 | 67 | 94 | 1.0 | 1.0 | 0.00 | 0.00 | 0.00 | 86 | 1020.6 |
| 20260831145007 | 67 | 135 | 0.0 | 0.0 | 0.00 | 0.00 | 0.00 | 86 | 1020.5 |
| 20260831144502 | 66 | 115 | 0.0 | 1.0 | 0.00 | 0.00 | 0.00 | 90 | 1020.8 |
| 20260831143957 | 66 | 268 | 1.0 | 1.0 | 0.00 | 0.00 | 0.00 | 87 | 1020.8 |
| 20260831143451 | 66 | 251 | 0.0 | 1.0 | 0.00 | 0.00 | 0.00 | 89 | 1020.7 |
| 20260831142947 | 66 | 176 | 2.0 | 3.0 | 0.00 | 0.00 | 0.00 | 87 | 1020.8 |
| 20260831142443 | 66 | 178 | 1.0 | 2.0 | 0.00 | 0.00 | 0.00 | 87 | 1020.7 |
| 20260831141938 | 66 | 156 | 0.0 | 1.0 | 0.00 | 0.00 | 0.00 | 89 | 1020.5 |
| 20260831141431 | 66 | 188 | 1.0 | 2.0 | 0.00 | 0.00 | 0.00 | 90 | 1020.5 |
| 20260831140927 | 66 | 91 | 0.0 | 1.0 | 0.00 | 0.00 | 0.00 | 91 | 1020.5 |
| 20260831140421 | 65 | 99 | 1.0 | 2.0 | 0.00 | 0.00 | 0.00 | 91 | 1020.7 |
| 20260831135920 | 66 | 87 | 2.0 | 2.0 | 0.00 | 0.00 | 0.00 | 91 | 1020.7 |
| 20260831135414 | 66 | 221 | 1.0 | 2.0 | 0.00 | 0.00 | 0.00 | 92 | 1020.9 |
| 20260831134909 | 65 | 143 | 0.0 | 1.0 | 0.00 | 0.00 | 0.00 | 94 | 1020.8 |
| 20260831134406 | 64 | 215 | 0.0 | 0.0 | 0.00 | 0.00 | 0.00 | 98 | 1020.8 |
| 20260831133905 | 64 | 215 | 2.0 | 2.0 | 0.00 | 0.00 | 0.00 | 99 | 1020.9 |
| 20260831133400 | 64 | 215 | 0.0 | 1.0 | 0.00 | 0.00 | 0.00 | 99 | 1020.9 |
| 20260831132855 | 63 | 215 | 0.0 | 0.0 | 0.00 | 0.00 | 0.00 | 99 | 1020.9 |
| 20260831132350 | 63 | 215 | 2.0 | 2.0 | 0.00 | 0.00 | 0.00 | 99 | 1021.0 |
| 20260831131849 | 63 | 180 | 1.0 | 2.0 | 0.00 | 0.00 | 0.00 | 99 | 1021.1 |
| 20260831131345 | 62 | 174 | 0.0 | 1.0 | 0.00 | 0.00 | 0.00 | 99 | 1021.1 |
| 20260831130840 | 62 | 174 | 1.0 | 1.0 | 0.00 | 0.00 | 0.00 | 99 | 1020.9 |
| 20260831130336 | 62 | 173 | 1.0 | 1.0 | 0.00 | 0.00 | 0.00 | 99 | 1021.1 |
| 20260831125835 | 62 | 173 | 0.0 | 1.0 | 0.00 | 0.00 | 0.00 | 99 | 1021.1 |
| 20260831125331 | 61 | 173 | 2.0 | 2.0 | 0.00 | 0.00 | 0.00 | 99 | 1021.3 |
| 20260831124830 | 61 | 173 | 2.0 | 2.0 | 0.00 | 0.00 | 0.00 | 99 | 1021.0 |
| 20260831124327 | 61 | 175 | 0.0 | 1.0 | 0.00 | 0.00 | 0.00 | 99 | 1021.0 |
| 20260831123827 | 60 | 175 | 0.0 | 1.0 | 0.00 | 0.00 | 0.00 | 99 | 1020.9 |
| 20260831123325 | 61 | 169 | 1.0 | 1.0 | 0.00 | 0.00 | 0.00 | 99 | 1020.9 |
| 20260831122820 | 61 | 116 | 0.0 | 0.0 | 0.00 | 0.00 | 0.00 | 99 | 1020.9 |
| 20260831122316 | 60 | 315 | 0.0 | 0.0 | 0.00 | 0.00 | 0.00 | 99 | 1021.0 |
| 20260831121816 | 60 | 316 | 0.0 | 0.0 | 0.00 | 0.00 | 0.00 | 99 | 1021.0 |
| 20260831121312 | 60 | 316 | 0.0 | 0.0 | 0.00 | 0.00 | 0.00 | 99 | 1021.3 |
| 20260831120808 | 60 | 316 | 0.0 | 0.0 | 0.00 | 0.00 | 0.00 | 99 | 1021.0 |
| 20260831120308 | 59 | 316 | 0.0 | 0.0 | 0.00 | 0.00 | 0.00 | 99 | 1021.2 |
| 20260831115803 | 59 | 316 | 0.0 | 0.0 | 0.00 | 0.00 | 0.00 | 99 | 1021.2 |
| 20260831115259 | 59 | 316 | 0.0 | 0.0 | 0.00 | 0.00 | 0.00 | 99 | 1021.3 |
| 20260831114759 | 59 | 316 | 0.0 | 0.0 | 0.00 | 0.00 | 0.00 | 99 | 1021.2 |
| 20260831114258 | 59 | 316 | 0.0 | 0.0 | 0.00 | 0.00 | 0.00 | 99 | 1021.1 |
| 20260831113754 | 59 | 316 | 1.0 | 1.0 | 0.00 | 0.00 | 0.00 | 99 | 1020.8 |
| 20260831113248 | 59 | 316 | 0.0 | 0.0 | 0.00 | 0.00 | 0.00 | 99 | 1021.1 |
| 20260831112748 | 59 | 316 | 2.0 | 2.0 | 0.00 | 0.00 | 0.00 | 99 | 1021.0 |
| 20260831112243 | 59 | 317 | 0.0 | 0.0 | 0.00 | 0.00 | 0.00 | 99 | 1020.9 |
| 20260831111738 | 59 | 317 | 0.0 | 0.0 | 0.00 | 0.00 | 0.00 | 99 | 1020.8 |
| 20260831111235 | 58 | 317 | 0.0 | 0.0 | 0.00 | 0.00 | 0.00 | 99 | 1020.7 |
| 20260831110730 | 58 | 317 | 0.0 | 0.0 | 0.00 | 0.00 | 0.00 | 99 | 1020.9 |
| 20260831110225 | 58 | 317 | 0.0 | 0.0 | 0.00 | 0.00 | 0.00 | 99 | 1021.0 |
| 20260831105723 | 58 | 317 | 0.0 | 0.0 | 0.00 | 0.00 | 0.00 | 99 | 1020.7 |
| 20260831105220 | 58 | 317 | 0.0 | 0.0 | 0.00 | 0.00 | 0.00 | 99 | 1020.6 |
| 20260831104714 | 58 | 317 | 0.0 | 0.0 | 0.00 | 0.00 | 0.00 | 99 | 1020.6 |
| 20260831104211 | 58 | 317 | 0.0 | 0.0 | 0.00 | 0.00 | 0.00 | 99 | 1020.4 |
| 20260831103711 | 58 | 317 | 0.0 | 0.0 | 0.00 | 0.00 | 0.00 | 99 | 1020.5 |
| 20260831103207 | 58 | 317 | 0.0 | 0.0 | 0.00 | 0.00 | 0.00 | 99 | 1020.4 |
| 20260831102706 | 58 | 317 | 0.0 | 0.0 | 0.00 | 0.00 | 0.00 | 99 | 1020.3 |
| 20260831102207 | 57 | 317 | 0.0 | 0.0 | 0.00 | 0.00 | 0.00 | 99 | 1020.1 |
| 20260831101702 | 57 | 317 | 0.0 | 0.0 | 0.00 | 0.00 | 0.00 | 99 | 1020.6 |
| 20260831101158 | 57 | 317 | 0.0 | 0.0 | 0.00 | 0.00 | 0.00 | 99 | 1020.4 |
| 20260831100654 | 57 | 317 | 0.0 | 0.0 | 0.00 | 0.00 | 0.00 | 99 | 1020.4 |
| 20260831100150 | 57 | 317 | 0.0 | 0.0 | 0.00 | 0.00 | 0.00 | 99 | 1020.5 |
| 20260831095647 | 57 | 317 | 0.0 | 0.0 | 0.00 | 0.00 | 0.00 | 99 | 1020.3 |
| 20260831095144 | 57 | 317 | 0.0 | 0.0 | 0.00 | 0.00 | 0.00 | 99 | 1020.5 |
| 20260831094643 | 57 | 317 | 0.0 | 0.0 | 0.00 | 0.00 | 0.00 | 99 | 1020.2 |
| 20260831094140 | 57 | 317 | 0.0 | 0.0 | 0.00 | 0.00 | 0.00 | 99 | 1020.1 |
| 20260831093635 | 57 | 317 | 0.0 | 0.0 | 0.00 | 0.00 | 0.00 | 99 | 1020.3 |
| 20260831093131 | 57 | 317 | 0.0 | 0.0 | 0.00 | 0.00 | 0.00 | 99 | 1020.3 |
| 20260831092627 | 57 | 317 | 0.0 | 0.0 | 0.00 | 0.00 | 0.00 | 99 | 1020.5 |
| 20260831092122 | 57 | 317 | 0.0 | 0.0 | 0.00 | 0.00 | 0.00 | 99 | 1020.5 |
| 20260831091622 | 57 | 317 | 0.0 | 0.0 | 0.00 | 0.00 | 0.00 | 99 | 1020.5 |
| 20260831091118 | 57 | 317 | 0.0 | 0.0 | 0.00 | 0.00 | 0.00 | 99 | 1020.5 |
| 20260831090613 | 57 | 317 | 0.0 | 0.0 | 0.00 | 0.00 | 0.00 | 99 | 1020.3 |
| 20260831090109 | 57 | 317 | 0.0 | 0.0 | 0.00 | 0.00 | 0.00 | 99 | 1020.4 |
| 20260831085604 | 57 | 317 | 0.0 | 0.0 | 0.00 | 0.00 | 0.00 | 99 | 1020.6 |
| 20260831085059 | 56 | 317 | 0.0 | 0.0 | 0.00 | 0.00 | 0.00 | 99 | 1020.6 |
| 20260831084555 | 56 | 317 | 0.0 | 0.0 | 0.00 | 0.00 | 0.00 | 99 | 1020.6 |
| 20260831084051 | 56 | 317 | 0.0 | 0.0 | 0.00 | 0.00 | 0.00 | 99 | 1020.2 |
| 20260831083547 | 57 | 317 | 0.0 | 0.0 | 0.00 | 0.00 | 0.00 | 99 | 1020.3 |
| 20260831083042 | 57 | 317 | 0.0 | 0.0 | 0.00 | 0.00 | 0.00 | 99 | 1020.3 |
| 20260831082541 | 56 | 317 | 0.0 | 0.0 | 0.00 | 0.00 | 0.00 | 99 | 1020.2 |
| 20260831082036 | 56 | 317 | 0.0 | 0.0 | 0.00 | 0.00 | 0.00 | 99 | 1020.5 |
| 20260831081532 | 56 | 317 | 0.0 | 0.0 | 0.00 | 0.00 | 0.00 | 99 | 1020.6 |
| 20260831081028 | 56 | 317 | 0.0 | 0.0 | 0.00 | 0.00 | 0.00 | 99 | 1020.2 |
| 20260831080528 | 56 | 317 | 0.0 | 0.0 | 0.00 | 0.00 | 0.00 | 99 | 1020.3 |
| 20260831080024 | 57 | 317 | 0.0 | 0.0 | 0.00 | 0.00 | 0.00 | 99 | 1020.3 |
| 20260831075519 | 56 | 317 | 0.0 | 0.0 | 0.00 | 0.00 | 0.00 | 99 | 1020.3 |
| 20260831075015 | 56 | 317 | 0.0 | 0.0 | 0.00 | 0.00 | 0.00 | 99 | 1020.2 |
| 20260831074514 | 57 | 317 | 0.0 | 0.0 | 0.00 | 0.00 | 0.00 | 99 | 1020.3 |
| 20260831074014 | 57 | 317 | 0.0 | 0.0 | 0.00 | 0.00 | 0.00 | 99 | 1020.4 |
| 20260831073514 | 57 | 317 | 0.0 | 0.0 | 0.00 | 0.00 | 0.00 | 99 | 1020.5 |
| 20260831073008 | 56 | 317 | 0.0 | 0.0 | 0.00 | 0.00 | 0.00 | 99 | 1020.5 |
| 20260831072503 | 57 | 317 | 0.0 | 0.0 | 0.00 | 0.00 | 0.00 | 99 | 1020.4 |
| 20260831071959 | 57 | 317 | 0.0 | 0.0 | 0.00 | 0.00 | 0.00 | 99 | 1020.4 |
| 20260831071458 | 57 | 317 | 0.0 | 0.0 | 0.00 | 0.00 | 0.00 | 99 | 1020.3 |
| 20260831070954 | 57 | 317 | 0.0 | 0.0 | 0.00 | 0.00 | 0.00 | 99 | 1020.3 |
| 20260831070453 | 57 | 317 | 0.0 | 0.0 | 0.00 | 0.00 | 0.00 | 99 | 1020.2 |
| 20260831065952 | 57 | 317 | 0.0 | 0.0 | 0.00 | 0.00 | 0.00 | 99 | 1020.3 |
| 20260831065450 | 57 | 317 | 0.0 | 0.0 | 0.00 | 0.00 | 0.00 | 99 | 1020.4 |
| 20260831064945 | 57 | 317 | 0.0 | 0.0 | 0.00 | 0.00 | 0.00 | 99 | 1020.3 |
| 20260831064440 | 57 | 317 | 0.0 | 0.0 | 0.00 | 0.00 | 0.00 | 99 | 1020.2 |
| 20260831063936 | 57 | 317 | 0.0 | 0.0 | 0.00 | 0.00 | 0.00 | 99 | 1020.4 |
| 20260831063431 | 57 | 317 | 0.0 | 0.0 | 0.00 | 0.00 | 0.00 | 99 | 1020.4 |
| 20260831062925 | 57 | 317 | 0.0 | 0.0 | 0.00 | 0.00 | 0.00 | 99 | 1020.3 |
| 20260831062422 | 57 | 317 | 0.0 | 0.0 | 0.00 | 0.00 | 0.00 | 99 | 1020.3 |
| 20260831061920 | 58 | 317 | 0.0 | 0.0 | 0.00 | 0.00 | 0.00 | 99 | 1020.4 |
| 20260831061419 | 58 | 317 | 0.0 | 0.0 | 0.00 | 0.00 | 0.00 | 99 | 1020.7 |
| 20260831060916 | 59 | 317 | 0.0 | 0.0 | 0.00 | 0.00 | 0.00 | 99 | 1020.6 |
| 20260831060415 | 59 | 317 | 0.0 | 0.0 | 0.00 | 0.00 | 0.00 | 99 | 1020.5 |
| 20260831055914 | 58 | 317 | 0.0 | 0.0 | 0.00 | 0.00 | 0.00 | 99 | 1020.8 |
| 20260831055410 | 58 | 317 | 0.0 | 0.0 | 0.00 | 0.00 | 0.00 | 99 | 1020.9 |
| 20260831054905 | 59 | 317 | 0.0 | 0.0 | 0.00 | 0.00 | 0.00 | 99 | 1020.7 |
| 20260831054400 | 59 | 317 | 0.0 | 0.0 | 0.00 | 0.00 | 0.00 | 99 | 1020.8 |
| 20260831053859 | 59 | 317 | 0.0 | 0.0 | 0.00 | 0.00 | 0.00 | 99 | 1020.7 |
| 20260831053357 | 59 | 317 | 0.0 | 0.0 | 0.00 | 0.00 | 0.00 | 99 | 1021.0 |
| 20260831052852 | 59 | 317 | 0.0 | 0.0 | 0.00 | 0.00 | 0.00 | 99 | 1021.0 |
| 20260831052352 | 59 | 317 | 0.0 | 0.0 | 0.00 | 0.00 | 0.00 | 99 | 1021.0 |
| 20260831051850 | 59 | 317 | 0.0 | 0.0 | 0.00 | 0.00 | 0.00 | 98 | 1021.0 |
| 20260831051348 | 59 | 317 | 0.0 | 0.0 | 0.00 | 0.00 | 0.00 | 99 | 1020.8 |
| 20260831050844 | 59 | 317 | 0.0 | 0.0 | 0.00 | 0.00 | 0.00 | 98 | 1020.7 |
| 20260831050344 | 60 | 317 | 0.0 | 0.0 | 0.00 | 0.00 | 0.00 | 99 | 1020.9 |
| 20260831045844 | 60 | 317 | 0.0 | 0.0 | 0.00 | 0.00 | 0.00 | 98 | 1020.9 |
| 20260831045343 | 60 | 317 | 0.0 | 0.0 | 0.00 | 0.00 | 0.00 | 98 | 1020.6 |
| 20260831044839 | 59 | 317 | 0.0 | 0.0 | 0.00 | 0.00 | 0.00 | 98 | 1020.9 |
| 20260831044338 | 59 | 317 | 0.0 | 0.0 | 0.00 | 0.00 | 0.00 | 98 | 1021.0 |
| 20260831043835 | 59 | 317 | 0.0 | 0.0 | 0.00 | 0.00 | 0.00 | 98 | 1020.9 |
| 20260831043334 | 60 | 317 | 0.0 | 0.0 | 0.00 | 0.00 | 0.00 | 98 | 1020.7 |
| 20260831042829 | 60 | 317 | 0.0 | 0.0 | 0.00 | 0.00 | 0.00 | 98 | 1020.9 |
| 20260831042328 | 60 | 317 | 0.0 | 0.0 | 0.00 | 0.00 | 0.00 | 97 | 1020.8 |
| 20260831041824 | 60 | 317 | 0.0 | 0.0 | 0.00 | 0.00 | 0.00 | 98 | 1021.1 |
| 20260831041323 | 60 | 317 | 0.0 | 0.0 | 0.00 | 0.00 | 0.00 | 97 | 1021.0 |
| 20260831040818 | 60 | 317 | 0.0 | 0.0 | 0.00 | 0.00 | 0.00 | 97 | 1021.0 |
| 20260831040317 | 60 | 317 | 0.0 | 0.0 | 0.00 | 0.00 | 0.00 | 97 | 1021.0 |
| 20260831035816 | 61 | 317 | 0.0 | 0.0 | 0.00 | 0.00 | 0.00 | 96 | 1020.7 |
| 20260831035316 | 61 | 317 | 0.0 | 0.0 | 0.00 | 0.00 | 0.00 | 96 | 1020.6 |
| 20260831034815 | 61 | 317 | 0.0 | 0.0 | 0.00 | 0.00 | 0.00 | 96 | 1020.8 |
| 20260831034311 | 61 | 317 | 0.0 | 0.0 | 0.00 | 0.00 | 0.00 | 96 | 1020.8 |
| 20260831033807 | 61 | 317 | 0.0 | 0.0 | 0.00 | 0.00 | 0.00 | 96 | 1020.8 |
| 20260831033306 | 61 | 317 | 0.0 | 0.0 | 0.00 | 0.00 | 0.00 | 96 | 1021.1 |
| 20260831032802 | 62 | 317 | 0.0 | 0.0 | 0.00 | 0.00 | 0.00 | 96 | 1020.9 |
| 20260831032256 | 62 | 317 | 0.0 | 0.0 | 0.00 | 0.00 | 0.00 | 95 | 1020.9 |
| 20260831031751 | 62 | 317 | 0.0 | 0.0 | 0.00 | 0.00 | 0.00 | 95 | 1021.1 |
| 20260831031246 | 62 | 317 | 0.0 | 0.0 | 0.00 | 0.00 | 0.00 | 95 | 1021.0 |
| 20260831030746 | 62 | 317 | 0.0 | 0.0 | 0.00 | 0.00 | 0.00 | 95 | 1020.8 |
| 20260831030244 | 62 | 317 | 0.0 | 0.0 | 0.00 | 0.00 | 0.00 | 95 | 1021.1 |
| 20260831025743 | 63 | 317 | 0.0 | 0.0 | 0.00 | 0.00 | 0.00 | 94 | 1021.0 |
| 20260831025238 | 63 | 317 | 0.0 | 0.0 | 0.00 | 0.00 | 0.00 | 94 | 1021.0 |
| 20260831024734 | 63 | 317 | 1.0 | 1.0 | 0.00 | 0.00 | 0.00 | 94 | 1021.1 |
| 20260831024232 | 63 | 317 | 1.0 | 1.0 | 0.00 | 0.00 | 0.00 | 94 | 1020.9 |
| 20260831023731 | 63 | 317 | 0.0 | 0.0 | 0.00 | 0.00 | 0.00 | 93 | 1021.1 |
| 20260831023226 | 63 | 317 | 0.0 | 0.0 | 0.00 | 0.00 | 0.00 | 93 | 1021.1 |
| 20260831022721 | 63 | 317 | 0.0 | 0.0 | 0.00 | 0.00 | 0.00 | 93 | 1021.0 |
| 20260831022220 | 63 | 317 | 0.0 | 0.0 | 0.00 | 0.00 | 0.00 | 93 | 1021.0 |
| 20260831021720 | 63 | 317 | 0.0 | 0.0 | 0.00 | 0.00 | 0.00 | 93 | 1021.1 |
| 20260831021214 | 63 | 317 | 0.0 | 0.0 | 0.00 | 0.00 | 0.00 | 93 | 1021.0 |
| 20260831020711 | 64 | 317 | 0.0 | 0.0 | 0.00 | 0.00 | 0.00 | 93 | 1020.9 |
| 20260831020210 | 64 | 317 | 0.0 | 0.0 | 0.00 | 0.00 | 0.00 | 92 | 1021.0 |
| 20260831015706 | 64 | 317 | 0.0 | 0.0 | 0.00 | 0.00 | 0.00 | 92 | 1021.0 |
| 20260831015206 | 64 | 317 | 0.0 | 0.0 | 0.00 | 0.00 | 0.00 | 91 | 1021.0 |
| 20260831014701 | 64 | 317 | 0.0 | 0.0 | 0.00 | 0.00 | 0.00 | 90 | 1020.8 |
| 20260831014156 | 64 | 317 | 0.0 | 0.0 | 0.00 | 0.00 | 0.00 | 89 | 1020.8 |
| 20260831013652 | 64 | 317 | 0.0 | 0.0 | 0.00 | 0.00 | 0.00 | 89 | 1020.7 |
| 20260831013152 | 64 | 317 | 0.0 | 1.0 | 0.00 | 0.00 | 0.00 | 89 | 1020.9 |
| 20260831012647 | 64 | 317 | 0.0 | 1.0 | 0.00 | 0.00 | 0.00 | 89 | 1021.0 |
| 20260831012142 | 64 | 317 | 0.0 | 0.0 | 0.00 | 0.00 | 0.00 | 91 | 1020.9 |
| 20260831011641 | 64 | 317 | 0.0 | 0.0 | 0.00 | 0.00 | 0.00 | 90 | 1020.8 |